Time;durP1;ratioP1;P1;durP2;ratioP2;P2;SDS_P1;SDS_P2;PMS_P1;PMS_P2;Temp;Humidity;BMP_temperature;BMP_pressure;BME280_temperature;BME280_humidity;BME280_pressure;Samples;Min_cycle;Max_cycle;Signal;HPM_P1;HPM_P2
2023/01/06 00:00:00;;;;;;;0.57;0.40;;;14.50;61.80;;;;;;5061308;28;20071;-48
2023/01/06 00:02:27;;;;;;;1.20;0.60;;;14.50;61.70;;;;;;5059733;28;20061;-46
2023/01/06 00:04:54;;;;;;;0.52;0.43;;;14.50;61.70;;;;;;5055287;28;20067;-48
2023/01/06 00:07:21;;;;;;;0.73;0.45;;;14.50;61.80;;;;;;5060920;28;20475;-48
2023/01/06 00:09:48;;;;;;;0.93;0.40;;;14.50;61.70;;;;;;5058251;28;20068;-48
2023/01/06 00:12:15;;;;;;;2.17;0.40;;;14.50;61.70;;;;;;5057802;28;20056;-48
2023/01/06 00:14:43;;;;;;;0.60;0.30;;;14.50;61.60;;;;;;5033344;28;20532;-44
2023/01/06 00:17:11;;;;;;;0.60;0.35;;;14.50;61.60;;;;;;5034350;28;20061;-46
2023/01/06 00:19:39;;;;;;;0.80;0.30;;;14.50;61.40;;;;;;5042025;28;20063;-49
2023/01/06 00:22:06;;;;;;;0.93;0.30;;;14.50;61.40;;;;;;5050785;28;20053;-48
2023/01/06 00:24:33;;;;;;;0.80;0.57;;;14.50;61.40;;;;;;5056440;28;20049;-46
2023/01/06 00:27:01;;;;;;;2.08;0.50;;;14.40;61.30;;;;;;5042454;28;20424;-48
2023/01/06 00:29:28;;;;;;;0.85;0.35;;;14.40;61.30;;;;;;5052618;28;20053;-48
2023/01/06 00:31:55;;;;;;;3.80;0.50;;;14.40;61.40;;;;;;5047656;28;20419;-48
2023/01/06 00:34:24;;;;;;;1.67;0.40;;;14.40;61.30;;;;;;5048894;28;20049;-49
2023/01/06 00:36:52;;;;;;;0.30;0.30;;;14.40;61.40;;;;;;5041840;28;20060;-48
2023/01/06 00:39:19;;;;;;;0.80;0.40;;;14.40;61.40;;;;;;5053526;28;20049;-45
2023/01/06 00:42:05;;;;;;;0.70;0.30;;;14.40;61.30;;;;;;5050259;28;20048;-47
2023/01/06 00:44:34;;;;;;;0.57;0.30;;;14.40;61.30;;;;;;5049002;28;20049;-49
2023/01/06 00:47:02;;;;;;;1.30;0.35;;;14.50;61.30;;;;;;5040294;28;20048;-49
2023/01/06 00:49:31;;;;;;;1.98;0.50;;;14.40;61.00;;;;;;5049056;28;20052;-47
2023/01/06 00:51:58;;;;;;;2.70;0.35;;;14.40;60.80;;;;;;5031107;28;20057;-49
2023/01/06 00:54:26;;;;;;;1.65;0.47;;;14.40;60.80;;;;;;5046306;28;21048;-49
2023/01/06 00:56:54;;;;;;;2.08;0.45;;;14.50;60.80;;;;;;5039865;28;20413;-49
2023/01/06 00:59:23;;;;;;;0.40;0.40;;;14.50;60.80;;;;;;5052572;28;20071;-49
2023/01/06 01:01:53;;;;;;;1.45;0.32;;;14.50;60.80;;;;;;5041218;28;20489;-45
2023/01/06 01:04:20;;;;;;;1.92;0.60;;;14.50;60.70;;;;;;5034518;28;20053;-50
2023/01/06 01:06:49;;;;;;;0.68;0.50;;;14.50;60.60;;;;;;5055529;28;20048;-50
2023/01/06 01:09:18;;;;;;;2.38;0.68;;;14.50;60.50;;;;;;5041765;28;20056;-46
2023/01/06 01:14:30;;;;;;;1.23;0.50;;;14.50;60.30;;;;;;5042991;28;20044;-48
2023/01/06 01:16:58;;;;;;;0.73;0.40;;;14.50;60.30;;;;;;5049474;28;20408;-49
2023/01/06 01:19:26;;;;;;;1.80;0.50;;;14.50;60.30;;;;;;5044584;28;20507;-49
2023/01/06 01:21:54;;;;;;;0.77;0.40;;;14.50;60.30;;;;;;5043007;28;20061;-46
2023/01/06 01:24:22;;;;;;;1.13;0.50;;;14.50;60.40;;;;;;5046483;28;20060;-48
2023/01/06 01:26:49;;;;;;;0.65;0.50;;;14.50;60.30;;;;;;5041220;28;20063;-47
2023/01/06 01:29:18;;;;;;;2.33;0.40;;;14.50;60.30;;;;;;5043008;28;20053;-48
2023/01/06 01:31:46;;;;;;;0.90;0.38;;;14.50;60.30;;;;;;5043902;28;20420;-45
2023/01/06 01:34:15;;;;;;;0.30;0.30;;;14.60;60.30;;;;;;5036815;28;21491;-47
2023/01/06 01:36:43;;;;;;;0.85;0.45;;;14.50;60.20;;;;;;5046186;28;20067;-48
2023/01/06 01:39:14;;;;;;;1.33;0.40;;;14.50;60.10;;;;;;5042396;28;20057;-47
2023/01/06 01:41:42;;;;;;;0.80;0.40;;;14.60;60.10;;;;;;5034571;28;20049;-48
2023/01/06 01:44:46;;;;;;;1.30;0.30;;;14.60;60.10;;;;;;5033550;28;20052;-45
2023/01/06 01:47:16;;;;;;;1.60;0.50;;;14.60;60.20;;;;;;5038950;28;20056;-48
2023/01/06 01:49:46;;;;;;;1.40;0.40;;;14.60;60.10;;;;;;5044213;28;20059;-50
2023/01/06 01:52:14;;;;;;;0.95;0.30;;;14.60;60.00;;;;;;5052628;28;20412;-46
2023/01/06 01:54:43;;;;;;;1.48;0.45;;;14.50;60.00;;;;;;5056772;28;20054;-49
2023/01/06 01:57:15;;;;;;;1.30;0.30;;;14.50;60.00;;;;;;5039700;28;20052;-45
2023/01/06 01:59:44;;;;;;;1.33;0.50;;;14.50;60.00;;;;;;5043083;28;20758;-47
2023/01/06 02:02:13;;;;;;;1.70;0.60;;;14.50;59.90;;;;;;5040116;28;20053;-46
2023/01/06 02:04:44;;;;;;;2.20;0.43;;;14.50;59.90;;;;;;5049550;28;20421;-46
2023/01/06 02:07:12;;;;;;;1.80;0.40;;;14.50;59.90;;;;;;5042948;28;20063;-49
2023/01/06 02:09:46;;;;;;;0.90;0.68;;;14.50;59.90;;;;;;5041255;28;20056;-47
2023/01/06 02:12:13;;;;;;;2.35;0.60;;;14.50;59.80;;;;;;5041463;28;20057;-48
2023/01/06 02:14:41;;;;;;;1.08;0.43;;;14.50;59.80;;;;;;5045835;28;20049;-47
2023/01/06 02:17:23;;;;;;;1.55;0.60;;;14.50;59.70;;;;;;5044225;28;20052;-45
2023/01/06 02:20:18;;;;;;;3.55;0.60;;;14.50;59.60;;;;;;5050036;28;20064;-50
2023/01/06 02:23:17;;;;;;;2.92;0.80;;;14.50;59.50;;;;;;5047149;28;20420;-46
2023/01/06 02:26:14;;;;;;;2.08;0.60;;;14.50;59.30;;;;;;5004423;28;20045;-45
2023/01/06 02:29:08;;;;;;;1.90;0.70;;;14.40;59.10;;;;;;5052314;28;20064;-46
2023/01/06 02:31:52;;;;;;;5.45;1.05;;;14.40;59.10;;;;;;5040017;28;20064;-49
2023/01/06 02:34:30;;;;;;;2.47;0.70;;;14.40;59.00;;;;;;5045739;28;20055;-48
2023/01/06 02:37:05;;;;;;;4.05;0.52;;;14.40;58.90;;;;;;5040993;28;20052;-50
2023/01/06 02:39:42;;;;;;;1.95;0.43;;;14.30;58.70;;;;;;5039332;28;20053;-50
2023/01/06 02:42:18;;;;;;;2.28;0.40;;;14.30;58.60;;;;;;5039183;28;20061;-46
2023/01/06 02:44:55;;;;;;;1.10;0.40;;;14.30;58.60;;;;;;5044238;28;20049;-48
2023/01/06 02:47:33;;;;;;;1.20;0.40;;;14.30;58.60;;;;;;5036476;28;20045;-47
2023/01/06 02:50:09;;;;;;;2.60;0.52;;;14.30;58.60;;;;;;5038021;28;20509;-50
2023/01/06 02:52:43;;;;;;;1.13;0.38;;;14.20;58.50;;;;;;5034051;28;20053;-45
2023/01/06 02:55:16;;;;;;;3.00;0.93;;;14.20;58.40;;;;;;5034287;28;20060;-48
2023/01/06 02:57:50;;;;;;;2.72;0.60;;;14.20;58.40;;;;;;5040964;28;20403;-48
2023/01/06 03:00:24;;;;;;;5.05;0.60;;;14.20;58.30;;;;;;5036199;28;20049;-45
2023/01/06 03:02:57;;;;;;;2.73;0.73;;;14.20;58.30;;;;;;5036334;28;20045;-49
2023/01/06 03:05:25;;;;;;;1.48;0.38;;;14.20;58.30;;;;;;5026620;28;20053;-44
2023/01/06 03:07:55;;;;;;;5.60;0.65;;;14.10;58.20;;;;;;5028905;28;20056;-49
2023/01/06 03:10:24;;;;;;;3.22;0.50;;;14.10;58.20;;;;;;5040054;28;20055;-45
2023/01/06 03:12:54;;;;;;;4.97;0.77;;;14.10;58.20;;;;;;5037924;28;20500;-46
2023/01/06 03:15:23;;;;;;;1.08;0.60;;;14.10;58.20;;;;;;5034273;28;20045;-47
2023/01/06 03:17:51;;;;;;;2.53;0.60;;;14.10;58.20;;;;;;5049529;28;20076;-48
2023/01/06 03:20:20;;;;;;;3.22;0.70;;;14.10;58.20;;;;;;5037032;28;20412;-48
2023/01/06 03:22:49;;;;;;;1.88;0.40;;;14.10;58.20;;;;;;5038915;28;20048;-48
2023/01/06 03:25:17;;;;;;;3.35;0.85;;;14.10;58.20;;;;;;5038601;28;20049;-48
2023/01/06 03:27:44;;;;;;;4.53;0.60;;;14.10;58.20;;;;;;5046571;28;20052;-48
2023/01/06 03:30:12;;;;;;;1.77;0.40;;;14.10;58.20;;;;;;5037795;28;20068;-48
2023/01/06 03:32:48;;;;;;;1.30;0.50;;;14.10;58.20;;;;;;5032069;28;20056;-48
2023/01/06 03:35:34;;;;;;;2.00;0.40;;;14.20;58.30;;;;;;5037237;28;20053;-45
2023/01/06 03:38:10;;;;;;;4.18;0.60;;;14.20;58.20;;;;;;5037282;28;20052;-48
2023/01/06 03:40:42;;;;;;;1.98;0.40;;;14.20;58.20;;;;;;5025285;28;20076;-47
2023/01/06 03:43:23;;;;;;;2.08;0.50;;;14.20;58.20;;;;;;5031953;28;20516;-48
2023/01/06 03:45:57;;;;;;;3.17;0.40;;;14.10;58.20;;;;;;5036931;28;20045;-50
2023/01/06 03:48:34;;;;;;;2.25;0.40;;;14.20;58.20;;;;;;5034966;28;20057;-47
2023/01/06 03:51:07;;;;;;;1.70;1.23;;;14.10;58.60;;;;;;5029501;28;20056;-46
2023/01/06 03:53:39;;;;;;;1.73;0.40;;;14.10;58.20;;;;;;5038013;28;20052;-45
2023/01/06 03:56:15;;;;;;;1.50;0.47;;;14.10;58.30;;;;;;5041675;28;20492;-46
2023/01/06 03:58:44;;;;;;;0.80;0.50;;;14.10;58.30;;;;;;5045683;28;20053;-45
2023/01/06 04:01:13;;;;;;;1.90;0.40;;;14.10;58.40;;;;;;5053413;28;20065;-47
2023/01/06 04:03:44;;;;;;;1.17;0.60;;;14.10;58.40;;;;;;5013911;28;20575;-44
2023/01/06 04:06:13;;;;;;;1.27;0.40;;;14.10;58.50;;;;;;4919212;28;20056;-47
2023/01/06 04:08:40;;;;;;;3.15;0.43;;;14.10;58.60;;;;;;4926541;28;20491;-46
2023/01/06 04:11:08;;;;;;;0.90;0.43;;;14.10;58.60;;;;;;4922088;28;20051;-47
2023/01/06 04:13:34;;;;;;;1.55;0.17;;;14.10;58.60;;;;;;4941360;28;20055;-47
2023/01/06 04:16:01;;;;;;;1.25;0.40;;;14.10;58.60;;;;;;4944570;28;20379;-46
2023/01/06 04:18:28;;;;;;;1.90;0.43;;;14.10;58.60;;;;;;4943578;28;20055;-47
2023/01/06 04:20:55;;;;;;;1.55;0.38;;;14.10;58.60;;;;;;4942835;29;20055;-47
2023/01/06 04:23:24;;;;;;;0.80;0.20;;;14.10;58.50;;;;;;4942994;28;20056;-44
2023/01/06 04:25:51;;;;;;;6.88;0.50;;;14.10;58.40;;;;;;4945235;28;20371;-48
2023/01/06 04:28:18;;;;;;;1.75;0.77;;;14.10;58.40;;;;;;4942321;28;20058;-48
2023/01/06 04:30:45;;;;;;;0.90;0.45;;;14.10;58.30;;;;;;4942657;28;20051;-45
2023/01/06 04:33:13;;;;;;;2.75;0.55;;;14.10;58.30;;;;;;4945042;28;20055;-45
2023/01/06 04:35:40;;;;;;;1.55;0.30;;;14.10;58.20;;;;;;4945123;28;20495;-48
2023/01/06 04:38:08;;;;;;;1.48;0.40;;;14.10;58.20;;;;;;4942660;28;20062;-44
2023/01/06 04:40:36;;;;;;;0.75;0.30;;;14.10;58.20;;;;;;4942334;28;20494;-47
2023/01/06 04:43:04;;;;;;;0.70;0.10;;;14.10;58.10;;;;;;4943668;28;20059;-47
2023/01/06 04:45:31;;;;;;;1.08;0.22;;;14.10;58.20;;;;;;4942631;28;20407;-43
2023/01/06 04:47:58;;;;;;;1.50;0.25;;;14.00;58.10;;;;;;4942174;28;20063;-47
2023/01/06 04:50:26;;;;;;;1.15;0.25;;;14.00;58.10;;;;;;4942906;28;20055;-45
2023/01/06 04:52:53;;;;;;;1.27;0.28;;;14.00;58.10;;;;;;4942305;28;20063;-46
2023/01/06 04:55:20;;;;;;;0.57;0.20;;;14.00;58.10;;;;;;4942533;28;20054;-45
2023/01/06 04:57:52;;;;;;;1.80;0.30;;;14.00;58.10;;;;;;4944196;28;20499;-45
2023/01/06 05:00:20;;;;;;;0.60;0.28;;;14.00;58.00;;;;;;4944848;28;20055;-45
2023/01/06 05:02:47;;;;;;;0.73;0.30;;;14.00;58.00;;;;;;4943736;28;20051;-47
2023/01/06 05:05:16;;;;;;;1.90;0.20;;;14.00;58.00;;;;;;4942041;28;20055;-44
2023/01/06 05:07:43;;;;;;;1.38;0.50;;;14.00;58.00;;;;;;4944848;28;20059;-46
2023/01/06 05:10:10;;;;;;;0.20;0.20;;;14.00;58.00;;;;;;4942400;28;20067;-44
2023/01/06 05:12:38;;;;;;;0.45;0.20;;;14.00;58.00;;;;;;4976298;28;20568;-44
2023/01/06 05:15:08;;;;;;;0.30;0.20;;;14.00;58.10;;;;;;5017865;28;20056;-44
2023/01/06 05:17:35;;;;;;;0.57;0.15;;;14.00;58.10;;;;;;5002611;28;20060;-44
2023/01/06 05:20:02;;;;;;;6.78;0.40;;;14.00;58.10;;;;;;5017449;28;20527;-47
2023/01/06 05:22:29;;;;;;;0.98;0.20;;;14.00;58.10;;;;;;5022658;28;20053;-47
2023/01/06 05:24:56;;;;;;;0.73;0.30;;;14.00;58.10;;;;;;5020382;28;20049;-43
2023/01/06 05:27:24;;;;;;;1.00;0.20;;;14.00;58.00;;;;;;5017837;28;20053;-45
2023/01/06 05:29:51;;;;;;;2.78;0.22;;;14.00;58.00;;;;;;5020743;28;20405;-48
2023/01/06 05:32:19;;;;;;;16.05;6.57;;;14.00;57.90;;;;;;5013469;28;20076;-47
2023/01/06 05:34:46;;;;;;;35.65;14.25;;;14.00;57.90;;;;;;5017257;28;20060;-45
2023/01/06 05:37:14;;;;;;;8.40;4.05;;;13.90;57.90;;;;;;5017819;28;20053;-47
2023/01/06 05:39:41;;;;;;;2.65;1.30;;;13.90;57.90;;;;;;5017429;28;20060;-45
2023/01/06 05:42:08;;;;;;;2.95;0.90;;;14.00;57.90;;;;;;5018072;28;20069;-44
2023/01/06 05:44:35;;;;;;;2.08;0.43;;;13.90;57.80;;;;;;5021851;28;20524;-45
2023/01/06 05:47:02;;;;;;;1.25;0.38;;;13.90;57.90;;;;;;5019870;28;20061;-44
2023/01/06 05:49:31;;;;;;;3.97;0.50;;;13.90;57.90;;;;;;5010994;28;20102;-45
2023/01/06 05:51:58;;;;;;;3.22;0.60;;;13.90;58.00;;;;;;5018396;28;20061;-47
2023/01/06 05:54:25;;;;;;;2.95;0.52;;;13.90;57.90;;;;;;5020782;28;20056;-48
2023/01/06 05:56:52;;;;;;;0.95;0.30;;;13.90;57.90;;;;;;5018903;28;20379;-46
2023/01/06 05:59:20;;;;;;;15.40;6.38;;;13.90;57.90;;;;;;5016516;28;20072;-46
2023/01/06 06:01:47;;;;;;;7.65;3.67;;;13.90;57.90;;;;;;5020602;28;20052;-43
2023/01/06 06:04:14;;;;;;;3.72;1.70;;;13.90;58.00;;;;;;5021170;28;20060;-45
2023/01/06 06:06:43;;;;;;;1.75;0.75;;;13.90;58.30;;;;;;5020240;28;20481;-45
2023/01/06 06:09:10;;;;;;;2.53;0.75;;;13.90;58.30;;;;;;5019483;28;20050;-45
2023/01/06 06:11:37;;;;;;;0.85;0.30;;;13.80;57.70;;;;;;5005585;28;20052;-49
2023/01/06 06:14:04;;;;;;;2.15;0.30;;;13.80;57.70;;;;;;4937815;28;20055;-49
2023/01/06 06:16:32;;;;;;;1.58;0.30;;;13.80;57.70;;;;;;4942121;28;20051;-43
2023/01/06 06:18:59;;;;;;;0.63;0.47;;;13.80;57.70;;;;;;4940201;28;20051;-47
2023/01/06 06:21:28;;;;;;;6.32;0.57;;;13.80;57.70;;;;;;4940203;28;20483;-45
2023/01/06 06:23:58;;;;;;;1.35;0.30;;;13.80;57.60;;;;;;4941494;28;20059;-46
2023/01/06 06:26:26;;;;;;;1.83;0.40;;;13.80;57.60;;;;;;4940126;29;20062;-46
2023/01/06 06:28:53;;;;;;;2.05;0.47;;;13.80;57.60;;;;;;4938474;28;20059;-47
2023/01/06 06:31:23;;;;;;;0.63;0.32;;;13.80;57.60;;;;;;4942528;28;20051;-47
2023/01/06 06:33:51;;;;;;;2.47;0.40;;;13.80;57.60;;;;;;4941178;28;20074;-45
2023/01/06 06:36:18;;;;;;;1.10;0.30;;;13.80;57.60;;;;;;4939707;28;20491;-46
2023/01/06 06:38:48;;;;;;;2.88;0.50;;;13.80;57.60;;;;;;4941254;28;20055;-50
2023/01/06 06:41:18;;;;;;;4.13;0.55;;;13.80;57.60;;;;;;4937120;28;20051;-44
2023/01/06 06:43:46;;;;;;;1.85;0.57;;;13.80;57.50;;;;;;4939577;28;20055;-48
2023/01/06 06:46:13;;;;;;;1.23;0.60;;;13.80;57.50;;;;;;4941223;28;20051;-46
2023/01/06 06:48:41;;;;;;;1.60;0.63;;;13.80;57.40;;;;;;4941882;28;20078;-45
2023/01/06 06:51:10;;;;;;;1.70;0.55;;;13.70;57.30;;;;;;4940113;28;20054;-49
2023/01/06 06:53:39;;;;;;;1.27;0.40;;;13.70;57.40;;;;;;4939777;28;20052;-45
2023/01/06 06:56:08;;;;;;;3.58;0.40;;;13.80;57.40;;;;;;4939790;28;20154;-43
2023/01/06 06:58:37;;;;;;;1.23;0.65;;;13.70;57.20;;;;;;4939041;28;20054;-45
2023/01/06 07:01:05;;;;;;;1.50;0.60;;;13.70;57.20;;;;;;4936515;28;20051;-47
2023/01/06 07:03:33;;;;;;;1.98;0.80;;;13.70;57.10;;;;;;4936370;28;20411;-45
2023/01/06 07:06:02;;;;;;;2.17;0.65;;;13.70;57.00;;;;;;4939790;28;20055;-46
2023/01/06 07:08:31;;;;;;;1.45;0.43;;;13.70;56.80;;;;;;4937945;28;20055;-47
2023/01/06 07:10:59;;;;;;;2.25;0.50;;;13.70;56.80;;;;;;4938945;28;20675;-47
2023/01/06 07:13:26;;;;;;;1.30;0.50;;;13.70;56.80;;;;;;4938603;28;20055;-48
2023/01/06 07:15:55;;;;;;;2.60;0.68;;;13.70;56.70;;;;;;4936311;28;20059;-48
2023/01/06 07:18:22;;;;;;;2.00;0.30;;;13.70;56.70;;;;;;4938447;28;20047;-47
2023/01/06 07:20:52;;;;;;;2.00;0.60;;;13.70;56.50;;;;;;4940576;28;20501;-48
2023/01/06 07:23:23;;;;;;;1.15;0.40;;;13.70;56.50;;;;;;4939631;28;20066;-45
2023/01/06 07:25:52;;;;;;;2.42;0.80;;;13.70;56.50;;;;;;4940987;28;20051;-46
2023/01/06 07:28:19;;;;;;;1.45;0.52;;;13.60;56.30;;;;;;4937851;28;20058;-42
2023/01/06 07:30:46;;;;;;;2.10;0.50;;;13.60;56.30;;;;;;4938215;28;20059;-46
2023/01/06 07:33:15;;;;;;;0.50;0.35;;;13.60;56.40;;;;;;4937314;28;20062;-47
2023/01/06 07:35:42;;;;;;;4.32;0.50;;;13.60;56.50;;;;;;4939533;28;20442;-46
2023/01/06 07:38:10;;;;;;;1.15;0.50;;;13.60;56.40;;;;;;4940078;28;20510;-45
2023/01/06 07:40:37;;;;;;;2.08;0.73;;;13.60;56.30;;;;;;4939483;28;20383;-49
2023/01/06 07:43:05;;;;;;;3.47;0.73;;;13.60;56.50;;;;;;4938842;28;20051;-44
2023/01/06 07:45:32;;;;;;;4.57;0.75;;;13.70;56.40;;;;;;4937042;28;20078;-46
2023/01/06 07:48:00;;;;;;;2.33;0.50;;;13.60;56.40;;;;;;4937984;28;20598;-46
2023/01/06 07:50:29;;;;;;;0.77;0.40;;;13.60;56.30;;;;;;4936815;28;20061;-46
2023/01/06 07:52:57;;;;;;;0.80;0.30;;;13.60;56.30;;;;;;4941428;28;20055;-43
2023/01/06 07:55:25;;;;;;;1.00;0.47;;;13.60;56.30;;;;;;4940807;28;20063;-45
2023/01/06 07:57:52;;;;;;;2.15;0.47;;;13.60;56.30;;;;;;4938881;28;20060;-47
2023/01/06 08:00:20;;;;;;;2.50;0.50;;;13.70;56.40;;;;;;4941337;28;20051;-48
2023/01/06 08:02:47;;;;;;;5.88;0.40;;;13.60;56.30;;;;;;4941739;28;20052;-47
2023/01/06 08:05:15;;;;;;;2.00;0.43;;;13.60;56.30;;;;;;4934253;28;20063;-48
2023/01/06 08:07:43;;;;;;;0.95;0.40;;;13.60;56.20;;;;;;4936683;28;20048;-45
2023/01/06 08:10:11;;;;;;;1.67;0.30;;;13.60;56.20;;;;;;4936633;28;20051;-46
2023/01/06 08:12:38;;;;;;;1.58;0.40;;;13.70;56.20;;;;;;4942537;28;20059;-45
2023/01/06 08:15:06;;;;;;;1.70;0.50;;;13.60;56.20;;;;;;4938289;28;20082;-46
2023/01/06 08:17:33;;;;;;;1.17;0.30;;;13.60;56.20;;;;;;4941056;28;20043;-46
2023/01/06 08:20:00;;;;;;;3.35;0.47;;;13.60;56.20;;;;;;4941067;28;20062;-49
2023/01/06 08:22:28;;;;;;;1.05;0.40;;;13.60;56.20;;;;;;4939600;28;20066;-44
2023/01/06 08:24:56;;;;;;;0.55;0.30;;;13.60;56.20;;;;;;4938021;28;20067;-44
2023/01/06 08:27:23;;;;;;;1.60;0.32;;;13.60;56.20;;;;;;4938807;28;20054;-45
2023/01/06 08:29:53;;;;;;;1.10;0.47;;;13.60;56.30;;;;;;4940039;28;20073;-48
2023/01/06 08:32:20;;;;;;;1.88;0.35;;;13.60;56.30;;;;;;4940814;28;21414;-46
2023/01/06 08:34:48;;;;;;;0.95;0.28;;;13.60;56.30;;;;;;4940446;28;20059;-45
2023/01/06 08:37:15;;;;;;;1.73;0.65;;;13.60;56.40;;;;;;4940458;28;20384;-48
2023/01/06 08:39:43;;;;;;;2.67;0.47;;;13.60;56.40;;;;;;4938430;28;20495;-46
2023/01/06 08:42:11;;;;;;;0.65;0.20;;;13.60;56.40;;;;;;4940964;28;20062;-46
2023/01/06 08:44:39;;;;;;;2.53;0.60;;;13.60;56.50;;;;;;4940138;28;20055;-48
2023/01/06 08:47:06;;;;;;;1.30;0.40;;;13.60;56.50;;;;;;4940470;28;20513;-45
2023/01/06 08:49:33;;;;;;;1.30;0.40;;;13.60;56.50;;;;;;4942170;28;20066;-48
2023/01/06 08:52:00;;;;;;;1.45;0.40;;;13.60;56.50;;;;;;4943132;28;20066;-46
2023/01/06 08:54:28;;;;;;;1.73;0.32;;;13.70;56.50;;;;;;4941240;28;20058;-48
2023/01/06 08:56:55;;;;;;;0.22;0.10;;;13.70;56.60;;;;;;4939329;28;20347;-47
2023/01/06 08:59:24;;;;;;;1.30;0.28;;;13.70;56.70;;;;;;4941230;28;20055;-45
2023/01/06 09:01:51;;;;;;;0.57;0.30;;;13.60;56.70;;;;;;4942565;28;20055;-48
2023/01/06 09:04:18;;;;;;;2.45;0.40;;;13.60;56.70;;;;;;4939389;28;20859;-46
2023/01/06 09:06:47;;;;;;;1.80;0.47;;;13.70;56.80;;;;;;4941367;28;20411;-45
2023/01/06 09:09:14;;;;;;;0.90;0.20;;;13.70;56.90;;;;;;4941904;28;20059;-49
2023/01/06 09:11:42;;;;;;;0.63;0.20;;;13.70;56.90;;;;;;4940900;28;20063;-47
2023/01/06 09:14:09;;;;;;;1.48;0.30;;;13.70;56.90;;;;;;4943109;28;20534;-46
2023/01/06 09:16:38;;;;;;;1.23;0.50;;;13.70;56.90;;;;;;4943348;28;20055;-49
2023/01/06 09:19:05;;;;;;;2.72;0.50;;;13.70;56.90;;;;;;4941274;28;20058;-50
2023/01/06 09:21:33;;;;;;;2.28;0.30;;;13.70;56.90;;;;;;4943797;28;20065;-46
2023/01/06 09:24:00;;;;;;;0.80;0.52;;;13.70;57.00;;;;;;4940099;28;20063;-47
2023/01/06 09:26:27;;;;;;;1.17;0.43;;;13.80;57.00;;;;;;4942702;28;20059;-47
2023/01/06 09:28:55;;;;;;;6.47;0.93;;;13.70;56.90;;;;;;4943088;28;20063;-47
2023/01/06 09:31:22;;;;;;;8.25;0.30;;;13.80;57.00;;;;;;4944678;28;20051;-46
2023/01/06 09:33:51;;;;;;;0.80;0.50;;;13.80;57.00;;;;;;4941402;28;20054;-47
2023/01/06 09:36:18;;;;;;;0.32;0.30;;;13.80;57.00;;;;;;4939210;28;20055;-46
2023/01/06 09:38:45;;;;;;;1.60;0.50;;;13.80;57.00;;;;;;4941419;28;20492;-47
2023/01/06 09:41:37;;;;;;;0.40;0.30;;;13.80;57.10;;;;;;4941956;28;20055;-45
2023/01/06 09:44:10;;;;;;;0.80;0.20;;;13.90;57.10;;;;;;4970739;28;20051;-47
2023/01/06 09:46:41;;;;;;;0.85;0.20;;;13.90;57.00;;;;;;4946574;28;20612;-45
2023/01/06 09:49:21;;;;;;;2.70;0.20;;;13.90;57.00;;;;;;4939648;28;20040;-48
2023/01/06 09:51:48;;;;;;;1.80;0.82;;;13.90;57.00;;;;;;4940845;28;20051;-48
2023/01/06 09:54:21;;;;;;;0.47;0.30;;;14.00;57.10;;;;;;4940564;28;20479;-45
2023/01/06 09:56:54;;;;;;;2.45;0.40;;;14.00;57.20;;;;;;4942956;28;20054;-46
2023/01/06 09:59:27;;;;;;;0.60;0.37;;;14.00;57.30;;;;;;4940213;28;20395;-46
2023/01/06 10:01:58;;;;;;;0.60;0.27;;;14.00;57.30;;;;;;4941090;28;20051;-47
2023/01/06 10:04:28;;;;;;;0.50;0.38;;;14.00;57.30;;;;;;4939736;28;20059;-49
2023/01/06 10:07:09;;;;;;;1.38;0.22;;;14.10;57.40;;;;;;4942244;28;20085;-48
2023/01/06 10:09:47;;;;;;;0.68;0.40;;;14.10;57.30;;;;;;4940118;28;20074;-47
2023/01/06 10:12:27;;;;;;;0.40;0.20;;;14.10;57.40;;;;;;4942151;28;20063;-45
2023/01/06 10:15:08;;;;;;;0.20;0.20;;;14.10;57.20;;;;;;4941449;28;20415;-46
2023/01/06 10:17:51;;;;;;;0.17;0.17;;;14.20;57.30;;;;;;4939680;28;20612;-44
2023/01/06 10:20:49;;;;;;;0.28;0.20;;;14.20;57.20;;;;;;4942953;28;20523;-45
2023/01/06 10:23:38;;;;;;;0.57;0.30;;;14.20;57.30;;;;;;4940967;28;20082;-46
2023/01/06 10:26:11;;;;;;;0.55;0.30;;;14.20;57.10;;;;;;4940885;29;20062;-48
2023/01/06 10:28:42;;;;;;;0.75;0.40;;;14.20;57.10;;;;;;4939991;28;20058;-48
2023/01/06 10:31:13;;;;;;;0.28;0.20;;;14.30;57.20;;;;;;4940754;28;20066;-45
2023/01/06 10:33:44;;;;;;;0.45;0.10;;;14.30;57.20;;;;;;4942314;28;20495;-48
2023/01/06 10:36:16;;;;;;;0.28;0.28;;;14.30;57.20;;;;;;4939615;28;20059;-46
2023/01/06 10:38:45;;;;;;;1.20;0.20;;;14.40;57.20;;;;;;4935419;28;20047;-47
2023/01/06 10:41:21;;;;;;;0.50;0.20;;;14.40;57.10;;;;;;4941902;28;20066;-49
2023/01/06 10:43:48;;;;;;;0.75;0.20;;;14.50;57.00;;;;;;4940361;28;20051;-48
2023/01/06 10:46:16;;;;;;;1.75;0.30;;;14.50;57.00;;;;;;4940310;28;20048;-48
2023/01/06 10:48:44;;;;;;;0.15;0.10;;;14.50;56.90;;;;;;4941679;28;20051;-50
2023/01/06 10:51:34;;;;;;;4.63;0.40;;;14.50;56.80;;;;;;4942976;28;20054;-49
2023/01/06 10:54:05;;;;;;;1.30;0.20;;;14.50;56.60;;;;;;4942027;28;20078;-47
2023/01/06 10:56:34;;;;;;;0.20;0.10;;;14.50;56.60;;;;;;4938963;28;20055;-47
2023/01/06 10:59:07;;;;;;;0.20;0.20;;;14.60;56.50;;;;;;4966443;28;20047;-45
2023/01/06 11:01:36;;;;;;;0.20;0.13;;;14.60;56.50;;;;;;4941676;28;20055;-49
2023/01/06 11:04:08;;;;;;;0.40;0.10;;;14.60;56.50;;;;;;4940822;28;20496;-51
2023/01/06 11:06:39;;;;;;;0.73;0.10;;;14.60;56.50;;;;;;4938363;28;20055;-49
2023/01/06 11:09:08;;;;;;;0.88;0.20;;;14.60;56.50;;;;;;4938412;28;20047;-50
2023/01/06 11:11:47;;;;;;;1.83;0.20;;;14.70;56.50;;;;;;4941338;28;20067;-48
2023/01/06 11:14:19;;;;;;;0.65;0.30;;;14.60;56.50;;;;;;4938896;28;20058;-48
2023/01/06 11:16:56;;;;;;;0.70;0.15;;;14.70;56.70;;;;;;4939811;28;20434;-47
2023/01/06 11:19:32;;;;;;;0.30;0.10;;;14.60;56.80;;;;;;4939890;28;20054;-48
2023/01/06 11:22:01;;;;;;;0.45;0.15;;;14.60;56.90;;;;;;4937995;28;20066;-47
2023/01/06 11:24:29;;;;;;;0.10;0.10;;;14.60;57.00;;;;;;4939137;28;20055;-48
2023/01/06 11:26:58;;;;;;;1.25;0.30;;;14.70;57.00;;;;;;4937720;28;20051;-50
2023/01/06 11:29:29;;;;;;;0.38;0.17;;;14.70;57.00;;;;;;4940147;28;20056;-46
2023/01/06 11:31:59;;;;;;;0.93;0.20;;;14.70;57.00;;;;;;4940182;28;20526;-47
2023/01/06 11:34:28;;;;;;;0.50;0.10;;;14.70;57.00;;;;;;4939633;28;20058;-49
2023/01/06 11:36:56;;;;;;;0.52;0.10;;;14.70;57.00;;;;;;4940049;28;20059;-45
2023/01/06 11:39:29;;;;;;;0.40;0.20;;;14.70;57.10;;;;;;4940136;28;20399;-46
2023/01/06 11:42:02;;;;;;;0.10;0.10;;;14.70;57.20;;;;;;4938561;28;20059;-48
2023/01/06 11:44:32;;;;;;;0.45;0.10;;;14.70;57.30;;;;;;4941774;28;20066;-49
2023/01/06 11:47:03;;;;;;;1.38;0.20;;;14.70;57.30;;;;;;4939229;28;20430;-47
2023/01/06 11:49:34;;;;;;;4.68;0.40;;;14.70;57.40;;;;;;4938005;28;20051;-49
2023/01/06 11:52:03;;;;;;;0.70;0.30;;;14.70;57.50;;;;;;4960736;28;20060;-48
2023/01/06 11:54:36;;;;;;;1.25;0.22;;;14.70;57.50;;;;;;4934997;28;20482;-50
2023/01/06 11:57:17;;;;;;;0.28;0.10;;;14.70;57.50;;;;;;4939158;28;20503;-50
2023/01/06 11:59:56;;;;;;;0.40;0.13;;;14.70;57.70;;;;;;4942018;28;20059;-48
2023/01/06 12:02:27;;;;;;;0.45;0.10;;;14.70;57.80;;;;;;4941594;28;20062;-46
2023/01/06 12:04:56;;;;;;;0.55;0.20;;;14.70;57.80;;;;;;4942068;28;20071;-50
2023/01/06 12:07:31;;;;;;;2.65;0.22;;;14.70;57.70;;;;;;4940891;29;20055;-47
2023/01/06 12:10:04;;;;;;;0.30;0.22;;;14.60;57.60;;;;;;4973399;28;20058;-46
2023/01/06 12:12:31;;;;;;;0.70;0.20;;;14.70;57.70;;;;;;4940665;28;20533;-48
2023/01/06 12:14:59;;;;;;;0.20;0.20;;;14.60;57.90;;;;;;4941992;28;20059;-47
2023/01/06 12:17:39;;;;;;;1.85;0.40;;;14.60;57.90;;;;;;4943987;28;20060;-48
2023/01/06 12:20:10;;;;;;;0.98;0.30;;;14.60;58.10;;;;;;4974536;28;20051;-47
2023/01/06 12:22:40;;;;;;;1.00;0.20;;;14.60;58.10;;;;;;4944725;28;20062;-47
2023/01/06 12:25:15;;;;;;;0.10;0.10;;;14.70;58.10;;;;;;4944025;28;20055;-49
2023/01/06 12:27:47;;;;;;;0.30;0.15;;;14.70;58.20;;;;;;4943642;28;20414;-47
2023/01/06 12:30:18;;;;;;;0.10;0.10;;;14.60;58.10;;;;;;4945059;28;20058;-44
2023/01/06 12:32:49;;;;;;;0.40;0.25;;;14.70;58.10;;;;;;4945482;28;20070;-50
2023/01/06 12:35:20;;;;;;;0.43;0.20;;;14.70;58.20;;;;;;4946010;28;20070;-45
2023/01/06 12:37:53;;;;;;;2.85;0.15;;;14.70;58.20;;;;;;4944615;28;20078;-48
2023/01/06 12:40:28;;;;;;;0.82;0.20;;;14.70;58.20;;;;;;4943902;28;20063;-50
2023/01/06 12:43:03;;;;;;;0.77;0.20;;;14.70;58.20;;;;;;4942925;28;20066;-47
2023/01/06 12:45:37;;;;;;;0.45;0.20;;;14.70;58.30;;;;;;4943118;28;20056;-45
2023/01/06 12:48:16;;;;;;;0.55;0.20;;;14.70;58.30;;;;;;4974462;28;20332;-47
2023/01/06 12:50:47;;;;;;;0.28;0.10;;;14.80;58.30;;;;;;4944142;28;20499;-44
2023/01/06 12:53:22;;;;;;;0.32;0.20;;;14.70;58.20;;;;;;4944398;28;20059;-47
2023/01/06 12:56:02;;;;;;;0.35;0.10;;;14.70;58.10;;;;;;4944515;28;20063;-45
2023/01/06 12:58:36;;;;;;;0.65;0.10;;;14.80;58.00;;;;;;4941683;28;20065;-47
2023/01/06 13:01:08;;;;;;;0.60;0.10;;;14.80;58.00;;;;;;4965493;28;20059;-51
2023/01/06 13:03:58;;;;;;;0.40;0.30;;;14.80;58.10;;;;;;4944041;28;20134;-49